Columbus, Ohio
Traffic Map
Current Weather Conditions
Columbus, Ohio
Clear
Clear
22°
Feels Like: 22°
Wind Chill: 22° Ceiling: Unl
Heat Index: 22° Visibility: 10mi
Dew Point: 15° Wind: 7mph
Humidity: 64% Direction: 280° (W)
Pressure: 30.02in Gusts: 0mph
Raw Report DataKCMH 310251Z 28006KT 10SM CLR 22/15 A3002 RMK AO2 SLP160 T02220150 53011
Traffic Incident Summary
Active as of:
Severity:
Category:
InformationThere was an issue retrieving the traffic information for this location. Please try a different location or try again shortly.
Advertisements
Track Severe Weather on mobile